createdAt,value
2022-10-23T00:01:45.089Z,21.65
2022-10-23T00:04:20.882Z,21.63
2022-10-23T00:06:48.945Z,21.62
2022-10-23T00:09:18.821Z,21.60
2022-10-23T00:11:48.047Z,21.60
2022-10-23T00:14:16.769Z,21.62
2022-10-23T00:16:43.707Z,21.63
2022-10-23T00:19:11.028Z,21.62
2022-10-23T00:21:37.925Z,21.61
2022-10-23T00:24:04.983Z,21.57
2022-10-23T00:26:33.894Z,21.59
2022-10-23T00:29:00.665Z,21.55
2022-10-23T00:31:27.271Z,21.54
2022-10-23T00:33:55.968Z,21.52
2022-10-23T00:36:22.618Z,21.58
2022-10-23T00:38:51.349Z,21.54
2022-10-23T00:41:21.593Z,21.52
2022-10-23T00:44:03.435Z,21.50
2022-10-23T00:46:30.764Z,21.49
2022-10-23T00:48:58.626Z,21.42
2022-10-23T00:51:29.541Z,21.44
2022-10-23T00:54:12.913Z,21.42
2022-10-23T00:56:46.384Z,21.38
2022-10-23T00:59:13.216Z,21.39
2022-10-23T01:01:40.285Z,21.34
2022-10-23T01:04:08.129Z,21.35
2022-10-23T01:06:40.548Z,21.34
2022-10-23T01:09:22.952Z,21.34
2022-10-23T01:12:09.674Z,21.32
2022-10-23T01:14:47.149Z,21.28
2022-10-23T01:17:23.168Z,21.25
2022-10-23T01:20:11.322Z,21.19
2022-10-23T01:23:02.728Z,21.13
2022-10-23T01:25:55.507Z,21.08
2022-10-23T01:28:50.633Z,21.07
2022-10-23T01:31:35.592Z,21.01
2022-10-23T01:34:18.996Z,20.94
2022-10-23T01:36:48.440Z,20.98
2022-10-23T01:39:29.744Z,20.98
2022-10-23T01:42:03.946Z,20.98
2022-10-23T01:44:41.054Z,20.96
2022-10-23T01:47:10.068Z,20.88
2022-10-23T01:49:39.608Z,20.83
2022-10-23T01:52:08.747Z,20.84
2022-10-23T01:54:40.346Z,20.84
2022-10-23T01:57:11.008Z,20.85
2022-10-23T01:59:39.824Z,20.86
2022-10-23T02:02:07.870Z,20.72
2022-10-23T02:04:40.136Z,20.58
2022-10-23T02:07:06.984Z,20.52
2022-10-23T02:09:34.529Z,20.48
2022-10-23T02:12:06.929Z,20.53
2022-10-23T02:14:36.459Z,20.57
2022-10-23T02:17:17.909Z,20.61
2022-10-23T02:19:54.091Z,20.67
2022-10-23T02:22:31.534Z,20.61
2022-10-23T02:25:18.352Z,20.61
2022-10-23T02:27:52.329Z,20.60
2022-10-23T02:30:22.998Z,20.58
2022-10-23T02:32:51.171Z,20.50
2022-10-23T02:35:20.017Z,20.49
2022-10-23T02:37:58.485Z,20.47
2022-10-23T02:40:33.165Z,20.57
2022-10-23T02:43:09.580Z,20.63
2022-10-23T02:45:42.560Z,20.69
2022-10-23T02:48:20.153Z,20.76
2022-10-23T02:50:57.999Z,20.78
2022-10-23T02:53:47.054Z,20.83
2022-10-23T02:56:23.218Z,20.84
2022-10-23T02:59:14.524Z,20.91
2022-10-23T03:01:58.371Z,20.91
2022-10-23T03:04:28.097Z,20.93
2022-10-23T03:06:55.696Z,20.95
2022-10-23T03:09:22.436Z,20.93
2022-10-23T03:11:49.010Z,20.96
2022-10-23T03:14:15.636Z,20.96
2022-10-23T03:16:42.369Z,21.02
2022-10-23T03:19:09.152Z,21.01
2022-10-23T03:21:36.014Z,20.98
2022-10-23T03:24:06.160Z,20.94
2022-10-23T03:26:32.724Z,20.92
2022-10-23T03:28:59.299Z,20.86
2022-10-23T03:31:26.011Z,20.85
2022-10-23T03:33:52.599Z,20.84
2022-10-23T03:36:19.247Z,20.80
2022-10-23T03:38:45.869Z,20.81
2022-10-23T03:41:12.481Z,20.77
2022-10-23T03:43:39.178Z,20.74
2022-10-23T03:46:09.406Z,20.76
2022-10-23T03:48:39.667Z,20.80
2022-10-23T03:51:06.592Z,20.80
2022-10-23T03:53:33.289Z,20.81
2022-10-23T03:56:00.181Z,20.86
2022-10-23T03:58:26.852Z,20.91
2022-10-23T04:00:53.444Z,20.93
2022-10-23T04:03:20.105Z,20.96
2022-10-23T04:05:46.829Z,20.99
2022-10-23T04:08:20.004Z,20.98
2022-10-23T04:10:47.186Z,21.05
2022-10-23T04:13:19.835Z,21.04
2022-10-23T04:15:50.740Z,21.06
2022-10-23T04:18:17.941Z,21.07
2022-10-23T04:20:47.008Z,21.07
2022-10-23T04:23:13.642Z,21.06
2022-10-23T04:25:40.293Z,21.05
2022-10-23T04:28:06.978Z,21.05
2022-10-23T04:30:33.610Z,21.07
2022-10-23T04:33:00.276Z,21.08
2022-10-23T04:35:26.936Z,21.14
2022-10-23T04:37:53.568Z,21.17
2022-10-23T04:40:20.143Z,21.22
2022-10-23T04:42:46.766Z,21.25
2022-10-23T04:45:13.499Z,21.27
2022-10-23T04:47:40.126Z,21.32
2022-10-23T04:50:07.128Z,21.36
2022-10-23T04:52:33.734Z,21.37
2022-10-23T04:55:00.434Z,21.37
2022-10-23T04:57:27.219Z,21.40
2022-10-23T04:59:53.791Z,21.36
2022-10-23T05:02:20.427Z,21.35
2022-10-23T05:04:47.036Z,21.34
2022-10-23T05:07:13.685Z,21.36
2022-10-23T05:09:40.393Z,21.38
2022-10-23T05:12:07.025Z,21.51
2022-10-23T05:14:33.623Z,21.55
2022-10-23T05:17:12.983Z,21.56
2022-10-23T05:19:44.930Z,21.56
2022-10-23T05:22:13.105Z,21.51
2022-10-23T05:24:40.299Z,21.45
2022-10-23T05:27:06.909Z,21.41
2022-10-23T05:29:33.552Z,21.43
2022-10-23T05:32:03.136Z,21.42
2022-10-23T05:34:31.782Z,21.38
2022-10-23T05:36:58.585Z,21.34
2022-10-23T05:39:25.212Z,21.31
2022-10-23T05:41:52.402Z,21.25
2022-10-23T05:44:18.997Z,21.26
2022-10-23T05:46:45.609Z,21.28
2022-10-23T05:49:12.259Z,21.30
2022-10-23T05:51:40.449Z,21.35
2022-10-23T05:54:08.291Z,21.38
2022-10-23T05:56:41.560Z,21.36
2022-10-23T05:59:08.744Z,21.31
2022-10-23T06:01:35.494Z,21.36
2022-10-23T06:04:02.296Z,21.36
2022-10-23T06:06:29.005Z,21.36
2022-10-23T06:08:55.656Z,21.40
2022-10-23T06:11:22.674Z,21.43
2022-10-23T06:13:49.268Z,21.45
2022-10-23T06:16:18.640Z,21.42
2022-10-23T06:18:46.245Z,21.47
2022-10-23T06:21:13.531Z,21.48
2022-10-23T06:23:41.762Z,21.53
2022-10-23T06:26:10.920Z,21.57
2022-10-23T06:28:38.884Z,21.58
2022-10-23T06:31:06.886Z,21.60
2022-10-23T06:33:33.892Z,21.59
2022-10-23T06:36:00.537Z,21.62
2022-10-23T06:38:27.134Z,21.66
2022-10-23T06:40:55.453Z,21.76
2022-10-23T06:43:22.420Z,21.72
2022-10-23T06:45:49.239Z,21.75
2022-10-23T06:48:16.411Z,21.73
2022-10-23T06:50:43.158Z,21.73
2022-10-23T06:53:09.769Z,21.75
2022-10-23T06:58:03.071Z,21.83
2022-10-23T07:00:29.755Z,21.92
2022-10-23T07:02:56.341Z,21.94
2022-10-23T07:05:22.960Z,21.88
2022-10-23T07:07:49.627Z,21.86
2022-10-23T07:10:16.319Z,21.86
2022-10-23T07:12:44.422Z,21.86
2022-10-23T07:15:11.294Z,21.89
2022-10-23T07:17:37.895Z,21.89
2022-10-23T07:20:04.840Z,21.92
2022-10-23T07:22:31.459Z,21.99
2022-10-23T07:24:58.137Z,22.00
2022-10-23T07:27:24.958Z,22.02
2022-10-23T07:29:52.443Z,22.02
2022-10-23T07:32:19.824Z,22.02
2022-10-23T07:34:46.415Z,22.04
2022-10-23T07:37:12.969Z,22.04
2022-10-23T07:39:39.617Z,22.04
2022-10-23T07:42:06.326Z,22.11
2022-10-23T07:44:32.874Z,22.10
2022-10-23T07:46:59.539Z,22.15
2022-10-23T07:49:26.165Z,22.18
2022-10-23T07:51:53.998Z,22.25
2022-10-23T07:54:20.710Z,22.26
2022-10-23T07:56:47.366Z,22.27
2022-10-23T07:59:14.692Z,22.29
2022-10-23T08:01:45.924Z,22.29
2022-10-23T08:04:12.628Z,22.34
2022-10-23T08:06:39.775Z,22.36
2022-10-23T08:09:21.448Z,22.36
2022-10-23T08:12:16.436Z,22.29
2022-10-23T08:14:43.077Z,22.36
2022-10-23T08:17:10.184Z,22.52
2022-10-23T08:19:37.054Z,22.50
2022-10-23T08:22:04.071Z,22.54
2022-10-23T08:24:30.886Z,22.61
2022-10-23T08:26:58.666Z,22.77
2022-10-23T08:29:25.723Z,22.85
2022-10-23T08:31:55.936Z,22.93
2022-10-23T08:34:22.656Z,22.92
2022-10-23T08:36:49.426Z,22.91
2022-10-23T08:39:16.299Z,22.90
2022-10-23T08:41:47.926Z,22.96
2022-10-23T08:44:27.405Z,23.08
2022-10-23T08:47:06.217Z,23.30
2022-10-23T08:49:39.123Z,23.32
2022-10-23T08:52:17.187Z,23.32
2022-10-23T08:54:57.545Z,23.23
2022-10-23T08:57:33.406Z,23.34
2022-10-23T09:00:12.436Z,23.39
2022-10-23T09:02:43.666Z,23.49
2022-10-23T09:06:02.225Z,23.54
2022-10-23T09:08:37.732Z,23.61
2022-10-23T09:11:04.605Z,23.63
2022-10-23T09:13:37.385Z,23.62
2022-10-23T09:16:22.966Z,23.65
2022-10-23T09:18:50.563Z,23.71
2022-10-23T09:21:17.610Z,23.77
2022-10-23T09:23:44.290Z,23.79
2022-10-23T09:26:18.186Z,23.76
2022-10-23T09:28:55.412Z,23.67
2022-10-23T09:31:22.232Z,23.60
2022-10-23T09:34:00.095Z,23.49
2022-10-23T09:36:29.343Z,23.51
2022-10-23T09:39:01.764Z,23.47
2022-10-23T09:41:35.241Z,23.46
2022-10-23T09:44:07.659Z,23.39
2022-10-23T09:46:55.481Z,23.39
2022-10-23T09:49:26.472Z,23.43
2022-10-23T09:52:03.770Z,23.44
2022-10-23T09:54:34.545Z,23.45
2022-10-23T09:57:23.964Z,23.44
2022-10-23T09:59:53.195Z,23.51
2022-10-23T10:02:43.207Z,23.54
2022-10-23T10:05:29.937Z,23.58
2022-10-23T10:08:23.073Z,23.57
2022-10-23T10:11:01.443Z,23.58
2022-10-23T10:13:30.977Z,23.69
2022-10-23T10:16:27.732Z,23.68
2022-10-23T10:19:31.413Z,23.63
2022-10-23T10:22:16.845Z,23.76
2022-10-23T10:24:49.458Z,23.80
2022-10-23T10:27:24.927Z,23.75
2022-10-23T10:30:06.200Z,23.81
2022-10-23T10:32:38.442Z,23.81
2022-10-23T10:35:20.788Z,23.99
2022-10-23T10:37:57.584Z,24.02
2022-10-23T10:40:35.497Z,23.99
2022-10-23T10:43:11.436Z,24.03
2022-10-23T10:45:44.717Z,24.08
2022-10-23T10:48:23.542Z,24.17
2022-10-23T10:51:02.468Z,24.20
2022-10-23T10:54:10.926Z,24.17
2022-10-23T10:56:41.853Z,24.08
2022-10-23T10:59:36.009Z,23.99
2022-10-23T11:02:21.292Z,23.94
2022-10-23T11:04:57.416Z,23.88
2022-10-23T11:07:29.538Z,23.86
2022-10-23T11:10:00.334Z,23.78
2022-10-23T11:12:28.340Z,23.80
2022-10-23T11:14:55.737Z,23.85
2022-10-23T11:17:38.152Z,23.80
2022-10-23T11:20:35.954Z,23.80
2022-10-23T11:23:21.342Z,23.72
2022-10-23T11:26:18.820Z,23.68
2022-10-23T11:29:24.723Z,23.68
2022-10-23T11:32:00.170Z,23.63
2022-10-23T11:34:47.047Z,23.60
2022-10-23T11:37:21.201Z,23.63
2022-10-23T11:40:03.405Z,23.72
2022-10-23T11:42:33.539Z,23.74
2022-10-23T11:45:00.431Z,23.83
2022-10-23T11:47:38.022Z,23.88
2022-10-23T11:50:08.842Z,23.91
2022-10-23T11:52:45.501Z,23.94
2022-10-23T11:55:19.920Z,23.92
2022-10-23T11:58:04.943Z,24.06
2022-10-23T12:00:38.810Z,24.06
2022-10-23T12:03:06.383Z,24.08
2022-10-23T12:05:41.653Z,24.09
2022-10-23T12:08:26.004Z,24.03
2022-10-23T12:10:53.265Z,23.96
2022-10-23T12:13:43.814Z,23.90
2022-10-23T12:16:11.119Z,23.89
2022-10-23T12:18:54.231Z,23.95
2022-10-23T12:21:28.194Z,23.96
2022-10-23T12:24:06.661Z,23.95
2022-10-23T12:26:50.713Z,23.95
2022-10-23T12:29:36.170Z,23.93
2022-10-23T12:32:36.071Z,23.90
2022-10-23T12:35:08.915Z,23.97
2022-10-23T12:38:15.130Z,24.03
2022-10-23T12:40:51.040Z,24.12
2022-10-23T12:43:26.253Z,24.23
2022-10-23T12:45:58.025Z,24.25
2022-10-23T12:48:27.810Z,24.26
2022-10-23T12:50:56.613Z,24.22
2022-10-23T12:53:24.371Z,24.26
2022-10-23T12:56:05.308Z,24.25
2022-10-23T12:58:34.684Z,24.23
2022-10-23T13:01:05.012Z,24.25
2022-10-23T13:03:33.250Z,24.26
2022-10-23T13:06:04.753Z,24.18
2022-10-23T13:08:40.900Z,24.17
2022-10-23T13:11:14.097Z,24.07
2022-10-23T13:13:42.211Z,24.09
2022-10-23T13:16:17.633Z,24.16
2022-10-23T13:20:19.338Z,24.23
2022-10-23T13:22:59.449Z,24.23
2022-10-23T13:25:27.555Z,24.25
2022-10-23T13:28:15.053Z,24.24
2022-10-23T13:30:49.020Z,24.25
2022-10-23T13:33:23.872Z,24.24
2022-10-23T13:35:58.276Z,24.31
2022-10-23T13:38:30.444Z,24.30
2022-10-23T13:41:00.107Z,24.23
2022-10-23T13:43:29.605Z,24.13
2022-10-23T13:45:58.994Z,24.07
2022-10-23T13:48:28.632Z,24.08
2022-10-23T13:51:06.364Z,24.04
2022-10-23T13:53:33.244Z,24.04
2022-10-23T13:56:00.208Z,24.05
2022-10-23T13:58:27.190Z,24.15
2022-10-23T14:00:54.311Z,24.16
2022-10-23T14:03:24.390Z,24.13
2022-10-23T14:05:52.249Z,24.10
2022-10-23T14:08:19.482Z,24.11
2022-10-23T14:10:46.557Z,24.07
2022-10-23T14:13:14.575Z,24.07
2022-10-23T14:15:41.550Z,24.12
2022-10-23T14:18:08.645Z,24.10
2022-10-23T14:20:42.018Z,23.99
2022-10-23T14:23:08.891Z,23.95
2022-10-23T14:25:38.572Z,23.93
2022-10-23T14:28:05.615Z,23.92
2022-10-23T14:30:32.649Z,23.82
2022-10-23T14:33:01.997Z,23.88
2022-10-23T14:35:28.974Z,23.77
2022-10-23T14:37:55.983Z,23.77
2022-10-23T14:40:22.958Z,23.72
2022-10-23T14:42:50.720Z,23.67
2022-10-23T14:45:24.751Z,23.64
2022-10-23T14:47:51.552Z,23.59
2022-10-23T14:50:18.321Z,23.58
2022-10-23T14:52:45.150Z,23.52
2022-10-23T14:55:11.927Z,23.47
2022-10-23T14:57:38.828Z,23.53
2022-10-23T15:00:06.830Z,23.49
2022-10-23T15:02:34.004Z,23.41
2022-10-23T15:05:00.862Z,23.41
2022-10-23T15:07:27.644Z,23.43
2022-10-23T15:09:55.600Z,23.37
2022-10-23T15:12:25.020Z,23.31
2022-10-23T15:14:51.770Z,23.30
2022-10-23T15:17:18.588Z,23.27
2022-10-23T15:19:46.223Z,23.28
2022-10-23T15:22:13.811Z,23.21
2022-10-23T15:24:41.744Z,23.17
2022-10-23T15:29:37.935Z,23.13
2022-10-23T15:32:05.998Z,23.09
2022-10-23T15:34:36.363Z,23.05
2022-10-23T15:37:03.901Z,23.03
2022-10-23T15:39:33.951Z,23.01
2022-10-23T15:42:00.764Z,22.99
2022-10-23T15:44:29.844Z,22.94
2022-10-23T15:46:57.445Z,22.90
2022-10-23T15:49:25.099Z,22.90
2022-10-23T15:51:53.168Z,22.90
2022-10-23T15:54:20.930Z,22.87
2022-10-23T15:56:53.872Z,22.84
2022-10-23T15:59:24.672Z,22.80
2022-10-23T16:01:52.102Z,22.76
2022-10-23T16:04:19.290Z,22.68
2022-10-23T16:06:46.251Z,22.72
2022-10-23T16:09:13.280Z,22.73
2022-10-23T16:11:41.831Z,22.66
2022-10-23T16:14:12.883Z,22.69
2022-10-23T16:16:39.733Z,22.66
2022-10-23T16:19:06.562Z,22.60
2022-10-23T16:21:36.267Z,22.57
2022-10-23T16:24:06.397Z,22.63
2022-10-23T16:26:33.852Z,22.55
2022-10-23T16:29:03.867Z,22.58
2022-10-23T16:31:31.199Z,22.57
2022-10-23T16:34:00.487Z,22.54
2022-10-23T16:36:28.223Z,22.52
2022-10-23T16:39:17.643Z,22.49
2022-10-23T16:42:05.254Z,22.47
2022-10-23T16:45:11.037Z,22.46
2022-10-23T16:47:38.128Z,22.43
2022-10-23T16:50:05.286Z,22.42
2022-10-23T16:52:33.395Z,22.41
2022-10-23T16:55:00.304Z,22.36
2022-10-23T16:57:28.052Z,22.35
2022-10-23T16:59:55.463Z,22.32
2022-10-23T17:02:22.538Z,22.31
2022-10-23T17:04:49.887Z,22.28
2022-10-23T17:07:16.814Z,22.17
2022-10-23T17:09:47.317Z,22.08
2022-10-23T17:12:15.970Z,21.88
2022-10-23T17:14:43.127Z,21.59
2022-10-23T17:17:10.159Z,21.57
2022-10-23T17:19:45.120Z,21.63
2022-10-23T17:22:14.028Z,21.52
2022-10-23T17:24:41.814Z,21.50
2022-10-23T17:27:09.202Z,21.35
2022-10-23T17:29:36.480Z,21.26
2022-10-23T17:32:04.309Z,21.22
2022-10-23T17:34:31.224Z,21.19
2022-10-23T17:36:58.179Z,21.21
2022-10-23T17:39:28.047Z,21.19
2022-10-23T17:41:56.041Z,21.15
2022-10-23T17:44:23.307Z,21.24
2022-10-23T17:46:54.034Z,21.33
2022-10-23T17:49:22.817Z,21.33
2022-10-23T17:51:57.295Z,21.40
2022-10-23T17:54:26.717Z,21.48
2022-10-23T17:56:54.137Z,21.54
2022-10-23T17:59:22.129Z,21.53
2022-10-23T18:01:50.245Z,21.57
2022-10-23T18:04:20.815Z,21.55
2022-10-23T18:06:51.100Z,21.57
2022-10-23T18:09:19.000Z,21.56
2022-10-23T18:11:48.179Z,21.59
2022-10-23T18:14:17.191Z,21.50
2022-10-23T18:16:45.990Z,21.34
2022-10-23T18:19:14.611Z,21.30
2022-10-23T18:21:41.758Z,21.38
2022-10-23T18:24:09.245Z,21.42
2022-10-23T18:26:39.478Z,21.43
2022-10-23T18:29:08.664Z,21.50
2022-10-23T18:31:37.415Z,21.55
2022-10-23T18:34:07.788Z,21.56
2022-10-23T18:36:40.908Z,21.61
2022-10-23T18:39:12.801Z,21.61
2022-10-23T18:41:42.161Z,21.66
2022-10-23T18:44:09.873Z,21.68
2022-10-23T18:46:37.621Z,21.76
2022-10-23T18:49:04.921Z,21.82
2022-10-23T18:51:34.344Z,21.85
2022-10-23T18:54:04.546Z,21.85
2022-10-23T18:56:32.012Z,21.87
2022-10-23T18:59:02.006Z,21.87
2022-10-23T19:01:30.338Z,21.90
2022-10-23T19:03:59.802Z,21.95
2022-10-23T19:06:30.530Z,21.92
2022-10-23T19:08:58.440Z,21.95
2022-10-23T19:11:29.140Z,21.97
2022-10-23T19:13:57.545Z,22.03
2022-10-23T19:16:29.980Z,22.07
2022-10-23T19:19:06.116Z,22.04
2022-10-23T19:21:38.678Z,22.09
2022-10-23T19:24:11.383Z,22.09
2022-10-23T19:26:41.412Z,22.06
2022-10-23T19:29:11.953Z,22.06
2022-10-23T19:31:43.364Z,22.03
2022-10-23T19:34:11.639Z,21.99
2022-10-23T19:36:38.613Z,21.97
2022-10-23T19:39:05.694Z,22.00
2022-10-23T19:41:32.730Z,22.00
2022-10-23T19:43:59.970Z,22.01
2022-10-23T19:46:27.314Z,21.98
2022-10-23T19:48:54.603Z,21.95
2022-10-23T19:51:22.052Z,21.94
2022-10-23T19:53:49.456Z,21.94
2022-10-23T19:56:16.703Z,21.93
2022-10-23T19:58:43.718Z,21.93
2022-10-23T20:01:14.748Z,21.94
2022-10-23T20:03:45.628Z,21.93
2022-10-23T20:06:14.991Z,21.92
2022-10-23T20:08:42.651Z,21.94
2022-10-23T20:11:17.904Z,21.93
2022-10-23T20:13:48.721Z,21.90
2022-10-23T20:16:27.761Z,21.90
2022-10-23T20:18:55.621Z,21.89
2022-10-23T20:21:23.604Z,21.86
2022-10-23T20:23:50.782Z,21.87
2022-10-23T20:26:21.494Z,21.86
2022-10-23T20:28:51.887Z,21.90
2022-10-23T20:31:21.184Z,21.86
2022-10-23T20:33:48.146Z,21.84
2022-10-23T20:36:45.428Z,21.90
2022-10-23T20:39:17.137Z,21.89
2022-10-23T20:41:45.244Z,21.94
2022-10-23T20:46:42.637Z,21.99
2022-10-23T20:49:10.091Z,22.00
2022-10-23T20:51:37.808Z,22.00
2022-10-23T20:54:07.101Z,21.99
2022-10-23T20:56:39.018Z,21.98
2022-10-23T20:59:17.562Z,22.00
2022-10-23T21:01:49.662Z,21.98
2022-10-23T21:04:19.427Z,21.99
2022-10-23T21:07:11.394Z,22.00
2022-10-23T21:09:39.791Z,22.02
2022-10-23T21:12:07.375Z,22.05
2022-10-23T21:14:34.965Z,22.10
2022-10-23T21:17:02.136Z,22.12
2022-10-23T21:19:29.106Z,22.11
2022-10-23T21:21:55.967Z,22.08
2022-10-23T21:24:24.211Z,22.08
2022-10-23T21:26:51.205Z,22.09
2022-10-23T21:29:19.316Z,22.08
2022-10-23T21:31:58.251Z,22.16
2022-10-23T21:34:26.219Z,22.15
2022-10-23T21:37:11.963Z,22.10
2022-10-23T21:39:40.410Z,22.17
2022-10-23T21:42:07.259Z,22.13
2022-10-23T21:44:34.178Z,22.14
2022-10-23T21:47:01.067Z,22.14
2022-10-23T21:49:28.430Z,22.21
2022-10-23T21:51:55.440Z,22.18
2022-10-23T21:54:22.779Z,22.24
2022-10-23T21:56:54.029Z,22.23
2022-10-23T21:59:24.513Z,22.19
2022-10-23T22:01:52.498Z,22.12
2022-10-23T22:04:22.139Z,22.18
2022-10-23T22:06:49.965Z,22.14
2022-10-23T22:09:20.253Z,22.13
2022-10-23T22:11:52.303Z,22.13
2022-10-23T22:14:19.231Z,22.09
2022-10-23T22:16:46.560Z,22.12
2022-10-23T22:19:15.918Z,22.12
2022-10-23T22:21:45.285Z,22.14
2022-10-23T22:24:12.773Z,22.19
2022-10-23T22:26:45.918Z,22.13
2022-10-23T22:29:20.180Z,22.13
2022-10-23T22:31:49.674Z,22.15
2022-10-23T22:34:27.154Z,22.09
2022-10-23T22:37:00.917Z,22.17
2022-10-23T22:39:27.607Z,22.14
2022-10-23T22:41:54.501Z,22.12
2022-10-23T22:44:21.228Z,22.09
2022-10-23T22:46:48.116Z,22.08
2022-10-23T22:49:14.934Z,22.18
2022-10-23T22:51:41.895Z,22.19
2022-10-23T22:54:08.766Z,22.16
2022-10-23T22:56:35.468Z,22.11
2022-10-23T22:59:02.644Z,22.13
2022-10-23T23:01:43.216Z,22.18
2022-10-23T23:04:36.858Z,22.17
2022-10-23T23:06:59.924Z,22.15
2022-10-23T23:09:26.867Z,22.09
2022-10-23T23:11:56.327Z,22.06
2022-10-23T23:14:24.399Z,22.11
2022-10-23T23:16:53.153Z,22.12
2022-10-23T23:19:20.133Z,22.16
2022-10-23T23:21:47.229Z,22.14
2022-10-23T23:24:17.587Z,22.13
2022-10-23T23:26:44.406Z,22.10
2022-10-23T23:29:11.565Z,22.09
2022-10-23T23:31:38.602Z,22.18
2022-10-23T23:34:05.896Z,22.16
2022-10-23T23:36:33.930Z,22.14
2022-10-23T23:39:00.890Z,22.15
2022-10-23T23:41:29.164Z,22.15
2022-10-23T23:43:57.642Z,22.24
2022-10-23T23:46:25.253Z,22.15
2022-10-23T23:48:52.411Z,22.08
2022-10-23T23:51:24.654Z,22.15
2022-10-23T23:53:52.227Z,22.11
2022-10-23T23:56:19.596Z,22.13
2022-10-23T23:58:46.421Z,22.12
